Time;durP1;ratioP1;P1;durP2;ratioP2;P2;SDS_P1;SDS_P2;PMS_P1;PMS_P2;Temp;Humidity;BMP_temperature;BMP_pressure;BME280_temperature;BME280_humidity;BME280_pressure;Samples;Min_cycle;Max_cycle;Signal;HPM_P1;HPM_P2
2023/06/30 00:01:32;;;;;;;13.60;6.57;;;17.60;99.90;;;;;;5075840;28;20101;-76
2023/06/30 00:03:58;;;;;;;9.98;6.13;;;17.60;99.90;;;;;;5075832;28;20036;-78
2023/06/30 00:06:24;;;;;;;13.40;6.05;;;17.50;99.90;;;;;;5075694;28;20036;-78
2023/06/30 00:08:51;;;;;;;12.20;5.47;;;17.50;99.90;;;;;;5075774;28;20016;-78
2023/06/30 00:11:19;;;;;;;6.95;4.82;;;17.50;99.90;;;;;;5075296;28;20043;-78
2023/06/30 00:13:45;;;;;;;10.23;5.68;;;17.50;99.90;;;;;;5075549;28;20024;-77
2023/06/30 00:16:11;;;;;;;13.93;5.90;;;17.50;99.90;;;;;;5075344;28;20053;-77
2023/06/30 00:18:37;;;;;;;8.73;5.80;;;17.50;99.90;;;;;;5074873;28;20025;-79
2023/06/30 00:21:03;;;;;;;9.00;5.82;;;17.40;99.90;;;;;;5075224;28;20024;-80
2023/06/30 00:23:29;;;;;;;9.75;5.55;;;17.40;99.90;;;;;;5075600;28;20016;-80
2023/06/30 00:25:55;;;;;;;7.55;5.10;;;17.40;99.90;;;;;;5075315;28;20495;-78
2023/06/30 00:28:21;;;;;;;8.18;5.60;;;17.40;99.90;;;;;;5074821;28;20021;-79
2023/06/30 00:30:47;;;;;;;8.60;4.68;;;17.30;99.90;;;;;;5073572;28;20394;-80
2023/06/30 00:33:13;;;;;;;11.07;5.45;;;17.30;99.90;;;;;;5075403;28;20109;-80
2023/06/30 00:35:40;;;;;;;8.45;5.65;;;17.30;99.90;;;;;;5073820;28;20064;-80
2023/06/30 00:38:06;;;;;;;11.68;5.82;;;17.30;99.90;;;;;;5075237;28;20056;-74
2023/06/30 00:40:32;;;;;;;9.13;5.22;;;17.20;99.90;;;;;;5073574;28;20052;-79
2023/06/30 00:43:00;;;;;;;7.53;5.32;;;17.10;99.90;;;;;;5075200;28;20129;-80
2023/06/30 00:45:26;;;;;;;9.35;6.30;;;17.10;99.90;;;;;;5070540;28;20016;-80
2023/06/30 00:47:53;;;;;;;11.88;6.40;;;17.00;99.90;;;;;;5051776;28;20033;-79
2023/06/30 00:50:19;;;;;;;13.05;6.15;;;16.90;99.90;;;;;;5055123;28;20038;-79
2023/06/30 00:52:48;;;;;;;15.95;6.63;;;16.90;99.90;;;;;;5058027;28;20396;-78
2023/06/30 00:55:15;;;;;;;17.70;6.53;;;16.90;99.90;;;;;;5058216;28;20060;-78
2023/06/30 00:57:42;;;;;;;9.98;6.40;;;16.90;99.90;;;;;;5072077;28;20104;-74
2023/06/30 01:00:11;;;;;;;16.05;7.32;;;16.90;99.90;;;;;;5056645;28;20135;-81
2023/06/30 01:02:46;;;;;;;12.23;6.10;;;16.90;99.90;;;;;;5074419;28;20035;-81
2023/06/30 01:05:25;;;;;;;13.93;7.20;;;16.90;99.90;;;;;;5074508;28;20123;-79
2023/06/30 01:08:08;;;;;;;9.75;6.03;;;16.90;99.90;;;;;;5073562;28;20112;-78
2023/06/30 01:10:35;;;;;;;10.20;6.47;;;16.90;99.90;;;;;;5073474;28;20012;-80
2023/06/30 01:13:03;;;;;;;10.27;6.53;;;16.80;99.90;;;;;;5074688;28;20094;-81
2023/06/30 01:15:30;;;;;;;11.10;5.80;;;16.80;99.90;;;;;;5074385;28;20021;-81
2023/06/30 01:18:02;;;;;;;17.30;7.63;;;16.80;99.90;;;;;;5074635;28;20021;-78
2023/06/30 01:20:30;;;;;;;12.85;8.80;;;16.70;99.90;;;;;;5073797;28;20047;-80
2023/06/30 01:23:07;;;;;;;16.73;10.85;;;16.70;99.90;;;;;;5073212;28;20033;-81
2023/06/30 01:25:33;;;;;;;14.73;11.27;;;16.70;99.90;;;;;;5074385;28;20462;-75
2023/06/30 01:28:00;;;;;;;19.27;12.85;;;16.70;99.90;;;;;;5074355;28;20050;-78
2023/06/30 01:30:29;;;;;;;20.60;13.52;;;16.70;99.90;;;;;;5073197;28;20466;-75
2023/06/30 01:32:58;;;;;;;20.42;14.68;;;16.70;99.90;;;;;;5074339;28;20370;-79
2023/06/30 01:35:25;;;;;;;25.75;16.42;;;16.50;99.90;;;;;;5074203;28;20020;-82
2023/06/30 01:37:52;;;;;;;22.60;16.65;;;16.50;99.90;;;;;;5072935;28;20557;-82
2023/06/30 01:40:19;;;;;;;22.67;18.00;;;16.50;99.90;;;;;;5072823;28;20501;-81
2023/06/30 01:42:45;;;;;;;27.60;19.75;;;16.50;99.90;;;;;;5072565;28;20078;-80
2023/06/30 01:45:15;;;;;;;26.17;18.30;;;16.40;99.90;;;;;;5073851;28;20028;-82
2023/06/30 01:47:43;;;;;;;30.35;20.55;;;16.40;99.90;;;;;;5072477;28;20078;-80
2023/06/30 01:50:10;;;;;;;29.08;20.13;;;16.40;99.90;;;;;;5073316;28;20016;-80
2023/06/30 01:52:36;;;;;;;30.67;21.52;;;16.50;99.90;;;;;;5056392;28;20032;-73
2023/06/30 01:55:03;;;;;;;36.78;20.58;;;16.50;99.90;;;;;;5074021;28;20082;-80
2023/06/30 01:57:29;;;;;;;27.13;21.15;;;16.50;99.90;;;;;;5086332;28;20377;-74
2023/06/30 01:59:55;;;;;;;25.92;19.80;;;16.50;99.90;;;;;;5060876;28;20055;-80
2023/06/30 02:02:21;;;;;;;28.83;20.13;;;16.50;99.90;;;;;;5073728;28;20025;-81
2023/06/30 02:04:47;;;;;;;24.83;19.73;;;16.40;99.90;;;;;;5073408;28;20497;-81
2023/06/30 02:07:15;;;;;;;24.13;18.50;;;16.40;99.90;;;;;;5072920;28;20073;-74
2023/06/30 02:09:41;;;;;;;27.40;18.05;;;16.50;99.90;;;;;;5055979;28;20020;-73
2023/06/30 02:12:06;;;;;;;22.45;17.25;;;16.60;99.90;;;;;;5072828;28;20044;-74
2023/06/30 02:14:32;;;;;;;18.65;15.38;;;16.60;99.90;;;;;;5073871;28;20031;-75
2023/06/30 02:16:58;;;;;;;20.77;15.18;;;16.60;99.90;;;;;;5073828;28;20051;-74
2023/06/30 02:19:24;;;;;;;27.60;15.43;;;16.60;99.90;;;;;;5055527;28;20482;-81
2023/06/30 02:21:50;;;;;;;18.45;13.13;;;16.60;99.90;;;;;;5073421;28;20032;-76
2023/06/30 02:24:18;;;;;;;18.77;14.15;;;16.60;99.90;;;;;;5073145;28;20021;-81
2023/06/30 02:26:47;;;;;;;16.80;13.27;;;16.60;99.90;;;;;;5073400;28;20031;-81
2023/06/30 02:29:13;;;;;;;18.20;11.85;;;16.70;99.90;;;;;;5078218;28;20481;-82
2023/06/30 02:31:39;;;;;;;17.48;12.90;;;16.70;99.90;;;;;;5075343;28;20131;-82
2023/06/30 02:34:05;;;;;;;16.02;12.70;;;16.60;99.90;;;;;;5068467;28;20051;-80
2023/06/30 02:36:31;;;;;;;16.50;10.82;;;16.60;99.90;;;;;;5054073;28;20032;-81
2023/06/30 02:38:57;;;;;;;17.77;11.23;;;16.60;99.90;;;;;;5054889;28;20028;-75
2023/06/30 02:41:23;;;;;;;16.90;10.98;;;16.50;99.90;;;;;;5063249;28;20021;-73
2023/06/30 02:43:49;;;;;;;16.98;11.30;;;16.50;99.90;;;;;;5055774;28;20036;-80
2023/06/30 02:46:15;;;;;;;18.90;11.85;;;16.50;99.90;;;;;;5053696;28;20382;-82
2023/06/30 02:48:41;;;;;;;15.13;11.43;;;16.50;99.90;;;;;;5052663;28;20032;-76
2023/06/30 02:51:07;;;;;;;17.05;11.75;;;16.50;99.90;;;;;;5035459;28;20036;-76
2023/06/30 02:53:33;;;;;;;16.88;12.40;;;16.40;99.90;;;;;;5051838;28;20033;-76
2023/06/30 02:56:00;;;;;;;17.80;11.68;;;16.30;99.90;;;;;;5051964;28;20112;-79
2023/06/30 02:58:29;;;;;;;18.70;11.98;;;16.30;99.90;;;;;;5035463;28;20032;-73
2023/06/30 03:00:56;;;;;;;17.40;11.48;;;16.40;99.90;;;;;;5052284;28;20493;-73
2023/06/30 03:03:22;;;;;;;14.68;10.55;;;16.40;99.90;;;;;;5040032;28;20571;-74
2023/06/30 03:05:48;;;;;;;16.15;10.65;;;16.40;99.90;;;;;;5052088;28;20393;-74
2023/06/30 03:08:14;;;;;;;22.50;10.85;;;16.40;99.90;;;;;;5051577;28;20033;-83
2023/06/30 03:10:44;;;;;;;14.48;10.30;;;16.50;99.90;;;;;;5035679;28;20052;-82
2023/06/30 03:13:10;;;;;;;14.25;10.13;;;16.60;99.90;;;;;;5072502;28;20071;-81
2023/06/30 03:15:36;;;;;;;15.93;10.30;;;16.60;99.90;;;;;;5056306;28;20025;-80
2023/06/30 03:18:02;;;;;;;16.42;9.90;;;16.60;99.90;;;;;;5054596;28;20082;-80
2023/06/30 03:20:28;;;;;;;13.40;9.80;;;16.60;99.90;;;;;;5039297;28;20052;-75
2023/06/30 03:22:54;;;;;;;11.68;8.80;;;16.60;99.90;;;;;;5071728;28;20044;-75
2023/06/30 03:25:21;;;;;;;13.25;9.60;;;16.70;99.90;;;;;;5038353;28;20013;-81
2023/06/30 03:27:47;;;;;;;14.02;9.18;;;16.70;99.90;;;;;;5054801;28;20108;-79
2023/06/30 03:30:13;;;;;;;15.35;9.27;;;16.80;99.90;;;;;;5037925;28;20116;-81
2023/06/30 03:32:43;;;;;;;12.40;8.85;;;16.80;99.90;;;;;;5070681;28;20053;-80
2023/06/30 03:35:09;;;;;;;15.23;9.57;;;16.90;99.90;;;;;;5058187;28;20021;-74
2023/06/30 03:37:35;;;;;;;14.70;8.50;;;16.90;99.90;;;;;;5057304;28;20036;-78
2023/06/30 03:40:04;;;;;;;11.35;8.75;;;17.00;99.90;;;;;;5058011;28;20024;-77
2023/06/30 03:42:29;;;;;;;17.00;9.35;;;17.00;99.90;;;;;;5057389;28;20032;-75
2023/06/30 03:44:55;;;;;;;13.27;9.55;;;17.10;99.90;;;;;;5075766;28;20436;-76
2023/06/30 03:47:21;;;;;;;12.88;8.45;;;18.50;99.90;;;;;;5057598;28;20104;-79
2023/06/30 03:49:47;;;;;;;14.93;8.57;;;19.50;99.90;;;;;;5076124;28;20494;-76
2023/06/30 03:52:13;;;;;;;15.50;8.70;;;20.70;99.90;;;;;;5074666;28;20035;-74
2023/06/30 03:54:40;;;;;;;12.82;7.63;;;21.70;99.90;;;;;;5074798;28;20024;-75
2023/06/30 03:57:05;;;;;;;13.05;7.78;;;22.40;99.90;;;;;;5074028;28;20043;-79
2023/06/30 03:59:32;;;;;;;17.42;7.05;;;22.70;99.90;;;;;;5074867;28;20035;-76
2023/06/30 04:01:58;;;;;;;11.68;6.50;;;23.70;99.70;;;;;;5075655;28;20033;-80
2023/06/30 04:04:24;;;;;;;13.07;6.95;;;24.00;98.30;;;;;;5075706;28;20028;-81
2023/06/30 04:06:50;;;;;;;11.85;7.32;;;24.70;95.60;;;;;;5075453;28;20440;-80
2023/06/30 04:09:16;;;;;;;13.70;6.97;;;25.20;94.30;;;;;;5075767;28;20028;-78
2023/06/30 04:11:42;;;;;;;21.85;7.47;;;25.80;93.20;;;;;;5075567;28;20074;-77
2023/06/30 04:14:07;;;;;;;15.45;7.47;;;26.50;90.90;;;;;;5075094;28;20078;-76
2023/06/30 04:16:33;;;;;;;15.13;7.05;;;26.60;90.50;;;;;;5075960;28;20432;-74
2023/06/30 04:18:59;;;;;;;20.08;7.10;;;27.60;90.20;;;;;;5075537;28;20025;-78
2023/06/30 04:21:25;;;;;;;15.85;7.50;;;27.00;88.50;;;;;;5075633;28;20029;-79
2023/06/30 04:23:51;;;;;;;23.10;8.45;;;27.30;87.50;;;;;;5075098;28;20024;-79
2023/06/30 04:26:17;;;;;;;12.80;6.78;;;27.90;87.10;;;;;;5075598;28;20039;-79
2023/06/30 04:28:43;;;;;;;14.95;7.25;;;28.00;87.90;;;;;;5075665;28;20097;-75
2023/06/30 04:31:09;;;;;;;12.77;6.40;;;28.10;87.10;;;;;;5075054;28;20119;-74
2023/06/30 04:33:36;;;;;;;12.63;6.13;;;28.00;88.30;;;;;;5075334;28;20179;-79
2023/06/30 04:36:01;;;;;;;8.18;5.53;;;28.10;86.80;;;;;;5075054;28;20028;-77
2023/06/30 04:38:27;;;;;;;9.45;5.95;;;28.40;84.40;;;;;;5075039;28;20032;-80
2023/06/30 04:40:54;;;;;;;7.47;5.47;;;28.50;85.10;;;;;;5075117;28;20025;-74
2023/06/30 04:43:20;;;;;;;9.90;5.20;;;28.60;84.80;;;;;;5075149;28;20063;-79
2023/06/30 04:45:45;;;;;;;5.93;4.68;;;28.50;84.60;;;;;;5039866;28;20044;-76
2023/06/30 04:48:11;;;;;;;7.53;4.68;;;28.20;85.00;;;;;;5075256;28;20029;-75
2023/06/30 04:50:37;;;;;;;7.40;5.13;;;28.00;84.90;;;;;;5075020;28;20032;-79
2023/06/30 04:53:03;;;;;;;11.40;4.70;;;28.00;84.30;;;;;;5040425;28;20044;-75
2023/06/30 04:55:29;;;;;;;9.82;5.20;;;28.10;85.70;;;;;;5074108;28;20028;-78
2023/06/30 04:57:56;;;;;;;6.93;5.13;;;28.00;83.40;;;;;;5075021;28;20452;-74
2023/06/30 05:00:26;;;;;;;9.27;5.45;;;26.90;84.30;;;;;;5080071;28;20016;-79
2023/06/30 05:02:52;;;;;;;11.45;6.03;;;25.50;84.80;;;;;;5070683;28;20028;-75
2023/06/30 05:05:18;;;;;;;8.68;5.38;;;24.90;89.60;;;;;;5058519;28;20027;-74
2023/06/30 05:07:45;;;;;;;11.82;6.03;;;24.70;90.20;;;;;;5074212;28;20466;-81
2023/06/30 05:10:11;;;;;;;9.00;5.53;;;24.20;90.50;;;;;;5055192;28;20083;-74
2023/06/30 05:12:37;;;;;;;14.07;5.88;;;23.80;90.80;;;;;;5054723;28;20029;-82
2023/06/30 05:15:03;;;;;;;7.18;5.43;;;23.40;91.30;;;;;;5054514;28;20017;-73
2023/06/30 05:17:29;;;;;;;6.47;5.28;;;23.20;92.20;;;;;;5066255;28;20028;-79
2023/06/30 05:19:55;;;;;;;9.50;5.78;;;23.40;93.50;;;;;;5055563;28;20458;-79
2023/06/30 05:22:21;;;;;;;8.02;5.82;;;23.40;94.30;;;;;;5053359;28;20036;-81
2023/06/30 05:24:47;;;;;;;10.50;5.65;;;22.80;93.90;;;;;;5054256;28;20033;-80
2023/06/30 05:27:14;;;;;;;9.23;6.30;;;23.00;94.90;;;;;;5057386;28;20144;-81
2023/06/30 05:29:40;;;;;;;8.50;5.88;;;22.70;95.10;;;;;;5059708;28;20048;-80
2023/06/30 05:32:07;;;;;;;13.20;6.18;;;22.90;97.10;;;;;;5072339;28;20049;-79
2023/06/30 05:34:33;;;;;;;9.48;5.82;;;22.90;97.40;;;;;;5073589;28;20039;-74
2023/06/30 05:36:58;;;;;;;12.30;6.53;;;23.00;97.30;;;;;;5073896;28;20016;-79
2023/06/30 05:39:24;;;;;;;10.38;6.47;;;23.00;98.10;;;;;;5073685;28;20048;-78
2023/06/30 05:41:50;;;;;;;10.63;7.15;;;23.20;98.40;;;;;;5073899;28;20122;-79
2023/06/30 05:44:16;;;;;;;11.38;7.35;;;23.10;98.10;;;;;;5072065;28;20115;-81
2023/06/30 05:46:42;;;;;;;10.38;7.47;;;23.20;97.90;;;;;;5072565;28;20452;-79
2023/06/30 05:49:08;;;;;;;9.85;7.28;;;23.20;97.80;;;;;;5073829;28;20042;-78
2023/06/30 05:51:34;;;;;;;12.07;8.52;;;23.60;99.50;;;;;;5072469;28;20064;-79
2023/06/30 05:54:02;;;;;;;13.02;7.13;;;23.60;95.50;;;;;;5073270;28;20021;-76
2023/06/30 05:56:29;;;;;;;14.85;8.48;;;23.70;96.90;;;;;;5074028;28;20032;-79
2023/06/30 05:58:55;;;;;;;16.90;9.02;;;23.90;97.20;;;;;;5072314;28;20044;-79
2023/06/30 06:01:21;;;;;;;11.90;7.78;;;24.20;95.30;;;;;;5073480;28;20029;-78
2023/06/30 06:03:47;;;;;;;9.85;7.32;;;24.50;94.40;;;;;;5071904;28;20039;-73
2023/06/30 06:06:13;;;;;;;13.38;7.28;;;24.50;94.20;;;;;;5073640;28;20021;-78
2023/06/30 06:08:42;;;;;;;12.05;8.18;;;24.80;94.40;;;;;;5073573;28;20081;-73
2023/06/30 06:11:08;;;;;;;8.57;5.30;;;24.50;93.70;;;;;;5073356;28;20312;-75
2023/06/30 06:13:35;;;;;;;11.45;6.10;;;24.30;91.60;;;;;;5073546;28;20035;-80
2023/06/30 06:16:01;;;;;;;6.65;4.93;;;24.50;93.30;;;;;;5072849;28;20134;-74
2023/06/30 06:18:27;;;;;;;8.90;5.32;;;24.80;92.90;;;;;;5073374;28;20550;-73
2023/06/30 06:20:53;;;;;;;8.10;5.88;;;24.50;94.10;;;;;;5073124;28;20028;-74
2023/06/30 06:23:19;;;;;;;8.82;5.90;;;24.60;94.50;;;;;;5055336;28;20028;-80
2023/06/30 06:25:45;;;;;;;8.05;6.03;;;23.70;94.80;;;;;;5075384;28;20453;-76
2023/06/30 06:28:11;;;;;;;10.45;6.25;;;24.30;95.00;;;;;;5072060;28;20033;-74
2023/06/30 06:30:37;;;;;;;8.98;6.30;;;24.20;95.20;;;;;;5086757;28;20064;-76
2023/06/30 06:33:03;;;;;;;7.93;5.63;;;24.50;94.90;;;;;;5073102;28;20379;-78
2023/06/30 06:35:28;;;;;;;11.80;6.32;;;24.60;95.00;;;;;;5072660;28;20070;-78
2023/06/30 06:37:54;;;;;;;9.23;6.53;;;24.30;93.80;;;;;;5072976;28;20473;-74
2023/06/30 06:40:20;;;;;;;12.02;7.60;;;24.60;95.30;;;;;;5086274;28;20016;-78
2023/06/30 06:42:46;;;;;;;12.88;6.90;;;25.00;95.10;;;;;;5073171;28;20055;-78
2023/06/30 06:45:12;;;;;;;10.63;5.95;;;25.30;93.50;;;;;;5070620;28;20062;-75
2023/06/30 06:48:15;;;;;;;9.65;7.15;;;25.60;93.10;;;;;;5072255;28;20382;-78
2023/06/30 06:50:41;;;;;;;8.75;7.07;;;25.80;93.90;;;;;;5072806;28;20025;-80
2023/06/30 06:53:07;;;;;;;11.10;6.93;;;26.10;91.40;;;;;;5071717;28;20379;-73
2023/06/30 06:55:33;;;;;;;9.93;6.15;;;26.10;91.50;;;;;;5073114;28;20074;-74
2023/06/30 06:57:59;;;;;;;7.72;5.97;;;26.20;92.20;;;;;;5072610;28;20362;-74
2023/06/30 07:00:25;;;;;;;11.57;6.45;;;25.60;92.30;;;;;;5072646;28;20334;-79
2023/06/30 07:02:52;;;;;;;12.02;7.13;;;25.40;91.50;;;;;;5073177;28;20032;-79
2023/06/30 07:05:18;;;;;;;9.02;6.88;;;25.20;91.50;;;;;;5072671;28;20016;-76
2023/06/30 07:07:44;;;;;;;8.95;6.22;;;25.80;91.50;;;;;;5055240;28;20133;-79
2023/06/30 07:10:12;;;;;;;8.73;6.50;;;26.00;90.50;;;;;;5072387;28;20437;-74
2023/06/30 07:12:38;;;;;;;8.55;6.47;;;26.40;91.90;;;;;;5073090;28;20052;-77
2023/06/30 07:15:05;;;;;;;7.72;5.90;;;26.40;90.10;;;;;;5072726;28;20465;-79
2023/06/30 07:17:31;;;;;;;8.65;5.80;;;26.80;90.70;;;;;;5072557;28;20085;-79
2023/06/30 07:19:57;;;;;;;8.52;6.00;;;27.10;90.50;;;;;;5072320;28;20024;-79
2023/06/30 07:22:23;;;;;;;11.27;6.07;;;27.10;90.00;;;;;;5072444;28;20040;-75
2023/06/30 07:24:48;;;;;;;9.50;5.55;;;27.40;90.60;;;;;;5073008;28;20020;-79
2023/06/30 07:27:14;;;;;;;8.65;5.38;;;27.60;87.00;;;;;;5072528;28;20509;-74
2023/06/30 07:29:40;;;;;;;6.20;4.35;;;27.60;89.30;;;;;;5072479;28;20068;-73
2023/06/30 07:32:06;;;;;;;4.20;3.58;;;27.80;84.60;;;;;;5072560;28;20468;-75
2023/06/30 07:34:33;;;;;;;5.88;3.55;;;27.80;80.40;;;;;;5073036;28;20555;-74
2023/06/30 07:37:00;;;;;;;6.78;3.80;;;27.90;84.00;;;;;;5072456;28;20040;-75
2023/06/30 07:39:26;;;;;;;6.32;3.65;;;27.90;81.60;;;;;;5073029;28;20108;-78
2023/06/30 07:41:52;;;;;;;11.00;4.40;;;27.60;82.30;;;;;;5072560;28;20052;-75
2023/06/30 07:44:19;;;;;;;7.03;3.67;;;27.70;84.70;;;;;;5072665;28;20028;-79
2023/06/30 07:46:45;;;;;;;4.97;3.83;;;27.60;84.50;;;;;;5072871;28;20424;-76
2023/06/30 07:49:11;;;;;;;5.40;3.80;;;27.60;85.70;;;;;;5071162;28;20363;-74
2023/06/30 07:51:37;;;;;;;5.70;3.85;;;27.80;83.90;;;;;;5072094;28;20032;-80
2023/06/30 07:54:03;;;;;;;8.20;4.28;;;27.40;82.80;;;;;;5072235;28;20020;-80
2023/06/30 07:56:29;;;;;;;7.47;3.60;;;27.70;85.20;;;;;;5072681;28;20024;-74
2023/06/30 07:58:54;;;;;;;4.45;3.90;;;27.80;86.00;;;;;;5076006;28;20032;-73
2023/06/30 08:01:20;;;;;;;7.13;4.63;;;27.10;84.70;;;;;;5076235;28;20024;-74
2023/06/30 08:03:48;;;;;;;7.82;3.85;;;27.30;85.70;;;;;;5082629;28;20037;-73
2023/06/30 08:06:14;;;;;;;8.57;4.28;;;27.40;85.30;;;;;;5076296;28;20074;-77
2023/06/30 08:08:40;;;;;;;6.82;4.18;;;26.90;87.00;;;;;;5075921;28;20537;-83
2023/06/30 08:11:06;;;;;;;5.05;3.88;;;27.20;85.10;;;;;;5075888;28;20025;-79
2023/06/30 08:13:31;;;;;;;6.72;4.10;;;27.40;83.70;;;;;;5075597;28;20028;-73
2023/06/30 08:15:57;;;;;;;7.05;3.90;;;27.20;83.20;;;;;;5075719;28;20060;-74
2023/06/30 08:18:23;;;;;;;6.72;3.75;;;27.70;84.10;;;;;;5075065;28;20470;-83
2023/06/30 08:20:49;;;;;;;7.63;4.35;;;28.00;85.10;;;;;;5075631;28;20028;-82
2023/06/30 08:23:14;;;;;;;10.85;4.25;;;28.00;82.00;;;;;;5083306;28;20017;-83
2023/06/30 08:25:40;;;;;;;5.30;4.00;;;27.90;81.90;;;;;;5075105;28;20500;-82
2023/06/30 08:28:06;;;;;;;6.72;4.13;;;27.90;85.40;;;;;;5074982;28;20074;-82
2023/06/30 08:30:32;;;;;;;7.65;4.53;;;28.10;83.30;;;;;;5074879;28;20474;-83
2023/06/30 08:32:58;;;;;;;5.40;3.85;;;27.60;81.60;;;;;;5074887;28;20051;-82
2023/06/30 08:35:24;;;;;;;5.30;3.80;;;27.30;81.90;;;;;;5075690;28;20024;-82
2023/06/30 08:37:50;;;;;;;4.90;3.33;;;28.00;82.30;;;;;;5057709;28;20028;-81
2023/06/30 08:40:26;;;;;;;5.72;3.90;;;27.80;80.30;;;;;;5075628;28;20020;-79
2023/06/30 08:42:53;;;;;;;6.05;3.50;;;27.80;82.10;;;;;;5074991;28;20043;-81
2023/06/30 08:45:24;;;;;;;5.75;3.72;;;27.70;78.90;;;;;;5075383;28;20100;-83
2023/06/30 08:47:51;;;;;;;5.82;4.18;;;27.40;80.70;;;;;;5075540;28;20025;-81
2023/06/30 08:50:17;;;;;;;6.25;4.50;;;27.60;85.00;;;;;;5075329;28;20051;-84
2023/06/30 08:52:43;;;;;;;4.82;3.78;;;27.30;83.40;;;;;;5078215;28;20481;-79
2023/06/30 08:55:10;;;;;;;8.65;4.05;;;27.70;83.00;;;;;;5080415;28;20021;-74
2023/06/30 08:57:37;;;;;;;8.00;4.18;;;27.90;84.60;;;;;;5075210;28;20111;-82
2023/06/30 09:00:03;;;;;;;6.78;4.15;;;27.30;81.70;;;;;;5074957;28;20020;-78
2023/06/30 09:02:30;;;;;;;3.85;3.40;;;27.30;81.40;;;;;;5075274;28;20025;-74
2023/06/30 09:04:56;;;;;;;4.68;3.88;;;27.70;81.10;;;;;;5074668;28;20028;-76
2023/06/30 09:07:27;;;;;;;6.60;4.10;;;27.70;78.70;;;;;;5075034;28;20028;-78
2023/06/30 09:09:58;;;;;;;8.40;4.50;;;27.30;77.60;;;;;;5073268;28;20020;-81
2023/06/30 09:12:24;;;;;;;6.30;3.55;;;28.00;83.80;;;;;;5074803;28;20044;-79
2023/06/30 09:14:52;;;;;;;5.18;3.45;;;28.30;81.40;;;;;;5074920;28;20020;-82
2023/06/30 09:17:18;;;;;;;6.63;4.22;;;28.40;82.10;;;;;;5074633;28;20499;-74
2023/06/30 09:19:45;;;;;;;4.82;3.45;;;28.90;83.10;;;;;;5077408;28;20103;-83
2023/06/30 09:22:11;;;;;;;6.00;3.80;;;28.80;79.20;;;;;;5083864;28;20103;-78
2023/06/30 09:24:37;;;;;;;8.02;4.32;;;28.80;79.30;;;;;;5076882;28;20107;-79
2023/06/30 09:27:04;;;;;;;5.30;3.97;;;28.40;81.90;;;;;;5074549;28;20032;-81
2023/06/30 09:29:34;;;;;;;8.30;4.07;;;28.50;80.90;;;;;;5074378;28;20369;-82
2023/06/30 09:32:01;;;;;;;6.30;3.85;;;27.90;79.20;;;;;;5076181;28;20040;-82
2023/06/30 09:34:27;;;;;;;6.38;3.78;;;28.10;79.00;;;;;;5074326;28;20024;-84
2023/06/30 09:36:56;;;;;;;4.80;4.18;;;28.20;78.90;;;;;;5074365;28;20379;-74
2023/06/30 09:39:23;;;;;;;6.35;4.00;;;28.40;78.30;;;;;;5074197;28;20351;-81
2023/06/30 09:41:50;;;;;;;5.07;4.07;;;28.30;78.00;;;;;;5056252;28;20489;-74
2023/06/30 09:44:20;;;;;;;9.88;4.38;;;28.20;76.80;;;;;;5074233;28;20013;-79
2023/06/30 09:46:50;;;;;;;4.68;4.07;;;28.20;79.80;;;;;;5073608;28;20056;-81
2023/06/30 09:49:23;;;;;;;7.97;4.15;;;28.30;80.20;;;;;;5074119;28;20550;-82
2023/06/30 09:51:50;;;;;;;5.85;4.10;;;28.40;77.90;;;;;;5073847;28;20040;-83
2023/06/30 09:54:20;;;;;;;4.90;3.92;;;28.70;81.80;;;;;;5074151;28;20008;-81
2023/06/30 09:56:46;;;;;;;8.43;4.30;;;28.80;78.40;;;;;;5055079;28;20036;-83
2023/06/30 09:59:12;;;;;;;5.97;3.88;;;28.70;78.60;;;;;;5074080;28;20534;-81
2023/06/30 10:01:42;;;;;;;5.63;4.10;;;28.60;79.50;;;;;;5073897;28;20036;-75
2023/06/30 10:04:08;;;;;;;6.60;4.18;;;28.80;77.70;;;;;;5055470;28;20128;-84
2023/06/30 10:06:35;;;;;;;6.40;4.20;;;28.60;80.40;;;;;;5072640;28;20106;-80
2023/06/30 10:09:04;;;;;;;4.97;3.95;;;28.60;77.60;;;;;;5056504;28;20028;-80
2023/06/30 10:11:31;;;;;;;7.72;4.18;;;28.90;81.30;;;;;;5072983;28;20059;-74
2023/06/30 10:13:59;;;;;;;4.88;3.60;;;28.80;80.00;;;;;;5073652;28;20028;-79
2023/06/30 10:16:26;;;;;;;5.00;4.03;;;28.90;80.90;;;;;;5073663;28;20055;-83
2023/06/30 10:18:54;;;;;;;7.50;4.40;;;28.80;78.90;;;;;;5073286;28;20025;-80
2023/06/30 10:21:20;;;;;;;8.45;4.97;;;29.00;83.00;;;;;;5082171;28;20032;-78
2023/06/30 10:23:49;;;;;;;6.00;4.45;;;29.20;79.20;;;;;;5073257;28;20111;-81
2023/06/30 10:26:17;;;;;;;5.60;3.88;;;29.00;75.90;;;;;;5072255;28;20451;-80
2023/06/30 10:28:43;;;;;;;6.60;3.75;;;28.90;75.10;;;;;;5076525;28;20082;-79
2023/06/30 10:31:09;;;;;;;4.90;3.95;;;28.90;75.80;;;;;;5083581;28;20111;-81
2023/06/30 10:33:36;;;;;;;5.68;4.22;;;29.00;74.40;;;;;;5073173;28;20482;-81
2023/06/30 10:36:03;;;;;;;4.30;3.67;;;29.00;76.00;;;;;;5073654;28;20033;-81
2023/06/30 10:38:29;;;;;;;5.68;4.25;;;28.70;76.20;;;;;;5072252;28;20488;-73
2023/06/30 10:41:14;;;;;;;6.28;4.03;;;28.70;77.80;;;;;;5076085;28;20107;-77
2023/06/30 10:44:01;;;;;;;6.15;4.03;;;28.80;78.00;;;;;;5072559;28;20032;-79
2023/06/30 10:46:53;;;;;;;7.63;4.40;;;28.80;77.90;;;;;;5073323;28;20458;-82
2023/06/30 10:49:41;;;;;;;5.13;4.15;;;29.00;80.10;;;;;;5058270;28;20063;-73
2023/06/30 10:52:23;;;;;;;6.93;4.75;;;29.20;80.40;;;;;;5054537;28;20041;-79
2023/06/30 10:54:49;;;;;;;6.20;4.55;;;29.50;82.70;;;;;;5052736;28;20112;-81
2023/06/30 10:57:26;;;;;;;7.00;4.18;;;29.70;79.70;;;;;;5052894;28;20033;-77
2023/06/30 11:00:11;;;;;;;6.20;4.10;;;29.90;79.00;;;;;;5054381;28;20493;-81
2023/06/30 11:02:57;;;;;;;5.13;3.85;;;30.30;77.80;;;;;;5054422;28;20036;-81
2023/06/30 11:05:27;;;;;;;5.68;3.92;;;30.30;78.50;;;;;;5051853;28;20028;-77
2023/06/30 11:08:03;;;;;;;5.30;4.00;;;30.40;79.60;;;;;;5072816;28;20023;-79
2023/06/30 11:10:32;;;;;;;6.35;3.72;;;;;;;;;;5073086;28;20028;-78
2023/06/30 11:13:08;;;;;;;10.05;3.92;;;30.50;77.60;;;;;;5072608;28;20439;-78
2023/06/30 11:15:38;;;;;;;9.25;6.78;;;30.00;78.70;;;;;;5071032;28;20024;-73
2023/06/30 11:18:21;;;;;;;5.05;3.95;;;29.80;80.80;;;;;;5071147;28;20028;-74
2023/06/30 11:21:06;;;;;;;3.90;3.55;;;30.10;81.30;;;;;;5071449;28;20099;-80
2023/06/30 11:23:42;;;;;;;4.20;3.42;;;30.20;77.90;;;;;;5072460;28;20477;-78
2023/06/30 11:26:13;;;;;;;6.25;4.05;;;30.00;77.10;;;;;;5072401;28;20504;-80
2023/06/30 11:28:44;;;;;;;5.30;3.70;;;30.10;77.40;;;;;;5072747;28;20039;-75
2023/06/30 11:31:12;;;;;;;4.47;3.30;;;30.30;78.30;;;;;;5065627;28;20482;-76
2023/06/30 11:33:42;;;;;;;4.65;3.60;;;30.30;78.00;;;;;;5056267;28;20390;-81
2023/06/30 11:36:15;;;;;;;3.95;3.20;;;30.50;78.30;;;;;;5056377;28;20136;-79
2023/06/30 11:38:46;;;;;;;5.78;4.00;;;30.40;77.50;;;;;;5056404;28;20111;-81
2023/06/30 11:41:11;;;;;;;9.30;3.65;;;30.50;78.10;;;;;;5056619;28;20033;-81
2023/06/30 11:43:39;;;;;;;4.50;3.47;;;30.30;78.60;;;;;;5056501;28;20032;-76
2023/06/30 11:46:05;;;;;;;4.70;3.83;;;30.40;79.80;;;;;;5038670;28;20071;-82
2023/06/30 11:48:38;;;;;;;5.55;3.78;;;30.20;79.70;;;;;;5056412;28;20044;-74
2023/06/30 11:51:04;;;;;;;7.80;4.22;;;30.40;77.10;;;;;;5043941;28;20031;-81
2023/06/30 11:53:30;;;;;;;5.57;4.72;;;30.40;76.70;;;;;;5056149;28;20053;-82
2023/06/30 11:56:01;;;;;;;7.38;4.18;;;30.20;79.10;;;;;;5056164;28;20108;-81
2023/06/30 11:58:27;;;;;;;5.20;3.80;;;30.20;81.10;;;;;;5038393;28;20052;-79
2023/06/30 12:00:53;;;;;;;5.15;4.00;;;30.30;82.50;;;;;;5056377;28;20061;-76
2023/06/30 12:03:18;;;;;;;4.85;3.40;;;30.40;81.60;;;;;;5056042;28;20029;-75
2023/06/30 12:05:55;;;;;;;5.43;3.78;;;30.30;76.60;;;;;;5054820;28;20394;-76
2023/06/30 12:08:24;;;;;;;5.38;3.78;;;30.30;77.80;;;;;;5038065;28;20021;-82
2023/06/30 12:10:50;;;;;;;8.27;3.83;;;30.20;80.00;;;;;;5055995;28;20108;-77
2023/06/30 12:13:17;;;;;;;3.90;3.42;;;30.20;79.50;;;;;;5055739;28;20526;-76
2023/06/30 12:15:43;;;;;;;5.10;3.90;;;30.00;77.00;;;;;;5055872;28;20017;-79
2023/06/30 12:18:09;;;;;;;4.25;3.70;;;30.00;79.30;;;;;;5055650;28;20025;-80
2023/06/30 12:20:40;;;;;;;6.35;4.03;;;29.50;79.70;;;;;;5055710;28;20025;-81
2023/06/30 12:23:07;;;;;;;4.88;3.33;;;29.50;77.80;;;;;;5055740;28;20057;-81
2023/06/30 12:25:34;;;;;;;6.15;3.85;;;29.30;78.90;;;;;;5059344;28;20104;-80
2023/06/30 12:28:04;;;;;;;5.63;3.83;;;29.40;79.50;;;;;;5070259;28;20032;-74
2023/06/30 12:30:30;;;;;;;5.32;3.42;;;29.30;79.10;;;;;;5064870;28;20124;-79
2023/06/30 12:33:00;;;;;;;4.70;4.03;;;29.20;79.30;;;;;;5043900;28;20103;-73
2023/06/30 12:35:38;;;;;;;10.10;4.25;;;29.40;81.20;;;;;;5055282;28;20028;-74
2023/06/30 12:38:07;;;;;;;4.53;3.65;;;29.50;82.20;;;;;;5075510;28;20025;-73
2023/06/30 12:40:33;;;;;;;8.27;4.15;;;29.50;78.50;;;;;;5057619;28;20036;-79
2023/06/30 12:43:00;;;;;;;6.28;3.47;;;29.30;80.60;;;;;;5054007;28;20386;-72